sensor_id;sensor_type;location;lat;lon;timestamp;P1;durP1;ratioP1;P2;durP2;ratioP2
14789;SDS011;7486;51.010;10.366;2023-04-24T00:00:03;0.90;;;0.90;;
14789;SDS011;7486;51.010;10.366;2023-04-24T00:02:49;0.95;;;0.90;;
14789;SDS011;7486;51.010;10.366;2023-04-24T00:05:34;1.55;;;0.95;;
14789;SDS011;7486;51.010;10.366;2023-04-24T00:08:20;1.90;;;1.10;;
14789;SDS011;7486;51.010;10.366;2023-04-24T00:11:05;2.15;;;0.90;;
14789;SDS011;7486;51.010;10.366;2023-04-24T00:13:50;1.05;;;1.00;;
14789;SDS011;7486;51.010;10.366;2023-04-24T00:16:36;1.88;;;1.00;;
14789;SDS011;7486;51.010;10.366;2023-04-24T00:19:21;1.67;;;1.02;;
14789;SDS011;7486;51.010;10.366;2023-04-24T00:22:07;1.45;;;1.20;;
14789;SDS011;7486;51.010;10.366;2023-04-24T00:24:53;1.25;;;1.10;;
14789;SDS011;7486;51.010;10.366;2023-04-24T00:27:38;1.33;;;1.13;;
14789;SDS011;7486;51.010;10.366;2023-04-24T00:30:24;1.13;;;1.02;;
14789;SDS011;7486;51.010;10.366;2023-04-24T00:33:09;1.77;;;1.17;;
14789;SDS011;7486;51.010;10.366;2023-04-24T00:35:54;0.90;;;0.90;;
14789;SDS011;7486;51.010;10.366;2023-04-24T00:38:43;1.20;;;1.10;;
14789;SDS011;7486;51.010;10.366;2023-04-24T00:41:29;1.33;;;1.10;;
14789;SDS011;7486;51.010;10.366;2023-04-24T00:44:14;2.35;;;1.23;;
14789;SDS011;7486;51.010;10.366;2023-04-24T00:47:00;1.33;;;1.20;;
14789;SDS011;7486;51.010;10.366;2023-04-24T00:49:46;1.38;;;1.00;;
14789;SDS011;7486;51.010;10.366;2023-04-24T00:52:31;3.33;;;1.55;;
14789;SDS011;7486;51.010;10.366;2023-04-24T00:55:41;1.75;;;1.00;;
14789;SDS011;7486;51.010;10.366;2023-04-24T00:58:27;2.10;;;1.20;;
14789;SDS011;7486;51.010;10.366;2023-04-24T01:01:13;2.00;;;0.90;;
14789;SDS011;7486;51.010;10.366;2023-04-24T01:03:59;1.42;;;1.10;;
14789;SDS011;7486;51.010;10.366;2023-04-24T01:06:45;2.55;;;1.20;;
14789;SDS011;7486;51.010;10.366;2023-04-24T01:09:30;1.40;;;1.20;;
14789;SDS011;7486;51.010;10.366;2023-04-24T01:12:16;2.75;;;1.10;;
14789;SDS011;7486;51.010;10.366;2023-04-24T01:15:02;1.90;;;1.00;;
14789;SDS011;7486;51.010;10.366;2023-04-24T01:17:48;1.25;;;1.10;;
14789;SDS011;7486;51.010;10.366;2023-04-24T01:20:33;1.60;;;1.27;;
14789;SDS011;7486;51.010;10.366;2023-04-24T01:23:21;1.85;;;1.05;;
14789;SDS011;7486;51.010;10.366;2023-04-24T01:26:09;2.80;;;1.00;;
14789;SDS011;7486;51.010;10.366;2023-04-24T01:28:54;1.63;;;1.10;;
14789;SDS011;7486;51.010;10.366;2023-04-24T01:31:43;1.55;;;1.08;;
14789;SDS011;7486;51.010;10.366;2023-04-24T01:34:28;1.02;;;1.02;;
14789;SDS011;7486;51.010;10.366;2023-04-24T01:37:14;2.13;;;1.15;;
14789;SDS011;7486;51.010;10.366;2023-04-24T01:40:00;1.30;;;0.90;;
14789;SDS011;7486;51.010;10.366;2023-04-24T01:42:46;1.77;;;1.10;;
14789;SDS011;7486;51.010;10.366;2023-04-24T01:45:32;1.63;;;1.00;;
14789;SDS011;7486;51.010;10.366;2023-04-24T01:48:17;2.60;;;1.05;;
14789;SDS011;7486;51.010;10.366;2023-04-24T01:51:04;1.20;;;1.10;;
14789;SDS011;7486;51.010;10.366;2023-04-24T01:53:55;1.13;;;0.90;;
14789;SDS011;7486;51.010;10.366;2023-04-24T01:56:41;1.10;;;1.00;;
14789;SDS011;7486;51.010;10.366;2023-04-24T01:59:28;1.45;;;1.00;;
14789;SDS011;7486;51.010;10.366;2023-04-24T02:02:13;1.83;;;1.10;;
14789;SDS011;7486;51.010;10.366;2023-04-24T02:04:59;1.20;;;1.10;;
14789;SDS011;7486;51.010;10.366;2023-04-24T02:07:44;1.25;;;1.10;;
14789;SDS011;7486;51.010;10.366;2023-04-24T02:10:31;1.70;;;1.10;;
14789;SDS011;7486;51.010;10.366;2023-04-24T02:13:16;1.13;;;1.05;;
14789;SDS011;7486;51.010;10.366;2023-04-24T02:16:01;3.28;;;1.40;;
14789;SDS011;7486;51.010;10.366;2023-04-24T02:18:47;1.27;;;1.00;;
14789;SDS011;7486;51.010;10.366;2023-04-24T02:21:32;0.90;;;0.90;;
14789;SDS011;7486;51.010;10.366;2023-04-24T02:24:19;1.25;;;1.15;;
14789;SDS011;7486;51.010;10.366;2023-04-24T02:27:04;1.33;;;1.00;;
14789;SDS011;7486;51.010;10.366;2023-04-24T02:29:49;2.08;;;1.10;;
14789;SDS011;7486;51.010;10.366;2023-04-24T02:32:35;1.98;;;1.10;;
14789;SDS011;7486;51.010;10.366;2023-04-24T02:35:20;2.03;;;1.10;;
14789;SDS011;7486;51.010;10.366;2023-04-24T02:38:05;3.00;;;1.33;;
14789;SDS011;7486;51.010;10.366;2023-04-24T02:40:51;1.23;;;1.10;;
14789;SDS011;7486;51.010;10.366;2023-04-24T02:43:37;1.60;;;1.10;;
14789;SDS011;7486;51.010;10.366;2023-04-24T02:46:22;1.83;;;1.23;;
14789;SDS011;7486;51.010;10.366;2023-04-24T02:49:08;1.63;;;1.20;;
14789;SDS011;7486;51.010;10.366;2023-04-24T02:51:53;2.47;;;1.20;;
14789;SDS011;7486;51.010;10.366;2023-04-24T02:54:39;2.53;;;1.15;;
14789;SDS011;7486;51.010;10.366;2023-04-24T02:57:24;1.17;;;1.08;;
14789;SDS011;7486;51.010;10.366;2023-04-24T03:00:09;1.15;;;1.05;;
14789;SDS011;7486;51.010;10.366;2023-04-24T03:02:55;1.20;;;1.05;;
14789;SDS011;7486;51.010;10.366;2023-04-24T03:05:41;1.23;;;1.10;;
14789;SDS011;7486;51.010;10.366;2023-04-24T03:08:26;1.90;;;1.20;;
14789;SDS011;7486;51.010;10.366;2023-04-24T03:11:12;1.40;;;1.10;;
14789;SDS011;7486;51.010;10.366;2023-04-24T03:13:59;1.50;;;1.20;;
14789;SDS011;7486;51.010;10.366;2023-04-24T03:16:44;1.63;;;1.10;;
14789;SDS011;7486;51.010;10.366;2023-04-24T03:19:30;1.35;;;1.10;;
14789;SDS011;7486;51.010;10.366;2023-04-24T03:22:20;1.67;;;1.17;;
14789;SDS011;7486;51.010;10.366;2023-04-24T03:25:07;0.95;;;0.95;;
14789;SDS011;7486;51.010;10.366;2023-04-24T03:27:53;1.45;;;1.20;;
14789;SDS011;7486;51.010;10.366;2023-04-24T03:31:05;1.55;;;1.00;;
14789;SDS011;7486;51.010;10.366;2023-04-24T03:33:53;3.38;;;1.27;;
14789;SDS011;7486;51.010;10.366;2023-04-24T03:36:39;3.17;;;1.10;;
14789;SDS011;7486;51.010;10.366;2023-04-24T03:39:25;1.30;;;1.20;;
14789;SDS011;7486;51.010;10.366;2023-04-24T03:42:13;1.35;;;0.98;;
14789;SDS011;7486;51.010;10.366;2023-04-24T03:45:07;2.42;;;1.33;;
14789;SDS011;7486;51.010;10.366;2023-04-24T03:47:56;3.38;;;1.40;;
14789;SDS011;7486;51.010;10.366;2023-04-24T03:50:42;1.98;;;1.30;;
14789;SDS011;7486;51.010;10.366;2023-04-24T03:53:28;2.13;;;1.35;;
14789;SDS011;7486;51.010;10.366;2023-04-24T03:56:14;2.08;;;1.15;;
14789;SDS011;7486;51.010;10.366;2023-04-24T03:59:00;1.08;;;1.08;;
14789;SDS011;7486;51.010;10.366;2023-04-24T04:01:45;3.22;;;1.20;;
14789;SDS011;7486;51.010;10.366;2023-04-24T04:04:33;0.95;;;0.90;;
14789;SDS011;7486;51.010;10.366;2023-04-24T04:07:19;1.75;;;1.05;;
14789;SDS011;7486;51.010;10.366;2023-04-24T04:10:04;2.00;;;1.10;;
14789;SDS011;7486;51.010;10.366;2023-04-24T04:12:50;1.17;;;1.08;;
14789;SDS011;7486;51.010;10.366;2023-04-24T04:15:37;1.85;;;1.02;;
14789;SDS011;7486;51.010;10.366;2023-04-24T04:18:23;1.23;;;1.10;;
14789;SDS011;7486;51.010;10.366;2023-04-24T04:21:08;1.45;;;0.90;;
14789;SDS011;7486;51.010;10.366;2023-04-24T04:23:53;1.55;;;1.10;;
14789;SDS011;7486;51.010;10.366;2023-04-24T04:26:46;1.67;;;1.10;;
14789;SDS011;7486;51.010;10.366;2023-04-24T04:29:39;2.40;;;1.13;;
14789;SDS011;7486;51.010;10.366;2023-04-24T04:32:26;1.13;;;1.00;;
14789;SDS011;7486;51.010;10.366;2023-04-24T04:35:12;1.85;;;1.10;;
14789;SDS011;7486;51.010;10.366;2023-04-24T04:37:57;2.05;;;1.00;;
14789;SDS011;7486;51.010;10.366;2023-04-24T04:41:00;2.00;;;1.20;;
14789;SDS011;7486;51.010;10.366;2023-04-24T04:43:49;1.95;;;1.05;;
14789;SDS011;7486;51.010;10.366;2023-04-24T04:46:35;1.05;;;0.90;;
14789;SDS011;7486;51.010;10.366;2023-04-24T04:49:28;2.25;;;1.15;;
14789;SDS011;7486;51.010;10.366;2023-04-24T04:52:14;1.75;;;1.00;;
14789;SDS011;7486;51.010;10.366;2023-04-24T04:54:59;2.05;;;0.93;;
14789;SDS011;7486;51.010;10.366;2023-04-24T04:58:02;1.67;;;0.70;;
14789;SDS011;7486;51.010;10.366;2023-04-24T05:00:47;3.78;;;1.10;;
14789;SDS011;7486;51.010;10.366;2023-04-24T05:03:39;0.90;;;0.88;;
14789;SDS011;7486;51.010;10.366;2023-04-24T05:06:28;3.05;;;0.85;;
14789;SDS011;7486;51.010;10.366;2023-04-24T05:09:13;1.00;;;0.82;;
14789;SDS011;7486;51.010;10.366;2023-04-24T05:12:09;1.02;;;0.63;;
14789;SDS011;7486;51.010;10.366;2023-04-24T05:15:05;2.28;;;0.77;;
14789;SDS011;7486;51.010;10.366;2023-04-24T05:17:51;0.82;;;0.80;;
14789;SDS011;7486;51.010;10.366;2023-04-24T05:20:36;1.52;;;1.00;;
14789;SDS011;7486;51.010;10.366;2023-04-24T05:23:22;1.50;;;0.88;;
14789;SDS011;7486;51.010;10.366;2023-04-24T05:26:10;2.55;;;0.93;;
14789;SDS011;7486;51.010;10.366;2023-04-24T05:28:56;1.75;;;1.10;;
14789;SDS011;7486;51.010;10.366;2023-04-24T05:31:41;1.67;;;0.98;;
14789;SDS011;7486;51.010;10.366;2023-04-24T05:34:26;2.65;;;1.00;;
14789;SDS011;7486;51.010;10.366;2023-04-24T05:37:14;2.65;;;1.10;;
14789;SDS011;7486;51.010;10.366;2023-04-24T05:39:59;1.10;;;1.02;;
14789;SDS011;7486;51.010;10.366;2023-04-24T05:42:44;1.05;;;0.95;;
14789;SDS011;7486;51.010;10.366;2023-04-24T05:45:29;1.95;;;1.00;;
14789;SDS011;7486;51.010;10.366;2023-04-24T05:48:15;2.20;;;1.10;;
14789;SDS011;7486;51.010;10.366;2023-04-24T05:51:00;1.55;;;0.88;;
14789;SDS011;7486;51.010;10.366;2023-04-24T05:53:46;2.37;;;1.10;;
14789;SDS011;7486;51.010;10.366;2023-04-24T05:56:31;1.58;;;0.93;;
14789;SDS011;7486;51.010;10.366;2023-04-24T05:59:19;2.10;;;1.07;;
14789;SDS011;7486;51.010;10.366;2023-04-24T06:02:05;1.58;;;1.08;;
14789;SDS011;7486;51.010;10.366;2023-04-24T06:04:51;2.42;;;1.15;;
14789;SDS011;7486;51.010;10.366;2023-04-24T06:07:36;1.08;;;1.00;;
14789;SDS011;7486;51.010;10.366;2023-04-24T06:10:24;1.80;;;1.20;;
14789;SDS011;7486;51.010;10.366;2023-04-24T06:13:09;1.02;;;0.98;;
14789;SDS011;7486;51.010;10.366;2023-04-24T06:15:58;1.20;;;0.90;;
14789;SDS011;7486;51.010;10.366;2023-04-24T06:18:51;1.80;;;1.00;;
14789;SDS011;7486;51.010;10.366;2023-04-24T06:21:37;0.80;;;0.80;;
14789;SDS011;7486;51.010;10.366;2023-04-24T06:24:26;0.93;;;0.90;;
14789;SDS011;7486;51.010;10.366;2023-04-24T06:27:12;1.25;;;1.10;;
14789;SDS011;7486;51.010;10.366;2023-04-24T06:29:59;1.30;;;1.20;;
14789;SDS011;7486;51.010;10.366;2023-04-24T06:32:45;1.38;;;1.27;;
14789;SDS011;7486;51.010;10.366;2023-04-24T06:35:33;2.60;;;1.33;;
14789;SDS011;7486;51.010;10.366;2023-04-24T06:38:18;1.60;;;1.38;;
14789;SDS011;7486;51.010;10.366;2023-04-24T06:41:03;1.17;;;1.08;;
14789;SDS011;7486;51.010;10.366;2023-04-24T06:43:49;1.20;;;1.10;;
14789;SDS011;7486;51.010;10.366;2023-04-24T06:46:34;1.20;;;1.10;;
14789;SDS011;7486;51.010;10.366;2023-04-24T06:49:20;1.52;;;1.20;;
14789;SDS011;7486;51.010;10.366;2023-04-24T06:52:05;3.50;;;1.17;;
14789;SDS011;7486;51.010;10.366;2023-04-24T06:54:51;2.38;;;1.23;;
14789;SDS011;7486;51.010;10.366;2023-04-24T06:57:39;1.75;;;1.10;;
14789;SDS011;7486;51.010;10.366;2023-04-24T07:00:25;1.67;;;1.10;;
14789;SDS011;7486;51.010;10.366;2023-04-24T07:03:10;1.52;;;1.17;;
14789;SDS011;7486;51.010;10.366;2023-04-24T07:05:57;1.20;;;1.10;;
14789;SDS011;7486;51.010;10.366;2023-04-24T07:08:42;3.15;;;1.00;;
14789;SDS011;7486;51.010;10.366;2023-04-24T07:11:27;0.90;;;0.90;;
14789;SDS011;7486;51.010;10.366;2023-04-24T07:14:13;1.45;;;1.00;;
14789;SDS011;7486;51.010;10.366;2023-04-24T07:16:59;1.10;;;1.00;;
14789;SDS011;7486;51.010;10.366;2023-04-24T07:19:45;1.30;;;1.20;;
14789;SDS011;7486;51.010;10.366;2023-04-24T07:22:32;3.17;;;1.17;;
14789;SDS011;7486;51.010;10.366;2023-04-24T07:25:17;1.10;;;1.00;;
14789;SDS011;7486;51.010;10.366;2023-04-24T07:28:02;2.00;;;1.33;;
14789;SDS011;7486;51.010;10.366;2023-04-24T07:30:48;1.17;;;1.08;;
14789;SDS011;7486;51.010;10.366;2023-04-24T07:33:33;2.20;;;0.80;;
14789;SDS011;7486;51.010;10.366;2023-04-24T07:36:18;1.75;;;1.27;;
14789;SDS011;7486;51.010;10.366;2023-04-24T07:39:04;2.28;;;1.20;;
14789;SDS011;7486;51.010;10.366;2023-04-24T07:41:50;1.38;;;1.13;;
14789;SDS011;7486;51.010;10.366;2023-04-24T07:44:35;1.30;;;1.20;;
14789;SDS011;7486;51.010;10.366;2023-04-24T07:47:21;1.40;;;1.27;;
14789;SDS011;7486;51.010;10.366;2023-04-24T07:50:06;1.80;;;1.38;;
14789;SDS011;7486;51.010;10.366;2023-04-24T07:52:52;1.15;;;1.00;;
14789;SDS011;7486;51.010;10.366;2023-04-24T07:55:37;1.30;;;1.20;;
14789;SDS011;7486;51.010;10.366;2023-04-24T07:58:23;1.85;;;1.50;;
14789;SDS011;7486;51.010;10.366;2023-04-24T08:01:08;1.40;;;1.30;;
14789;SDS011;7486;51.010;10.366;2023-04-24T08:03:53;1.10;;;1.00;;
14789;SDS011;7486;51.010;10.366;2023-04-24T08:06:40;1.27;;;1.20;;
14789;SDS011;7486;51.010;10.366;2023-04-24T08:09:25;1.42;;;1.33;;
14789;SDS011;7486;51.010;10.366;2023-04-24T08:12:12;1.27;;;1.25;;
14789;SDS011;7486;51.010;10.366;2023-04-24T08:14:57;3.17;;;1.27;;
14789;SDS011;7486;51.010;10.366;2023-04-24T08:17:42;1.42;;;1.33;;
14789;SDS011;7486;51.010;10.366;2023-04-24T08:20:28;1.52;;;1.20;;
14789;SDS011;7486;51.010;10.366;2023-04-24T08:23:14;1.85;;;1.20;;
14789;SDS011;7486;51.010;10.366;2023-04-24T08:25:59;1.50;;;1.30;;
14789;SDS011;7486;51.010;10.366;2023-04-24T08:28:44;1.30;;;1.20;;
14789;SDS011;7486;51.010;10.366;2023-04-24T08:31:30;1.30;;;1.20;;
14789;SDS011;7486;51.010;10.366;2023-04-24T08:34:15;1.50;;;1.08;;
14789;SDS011;7486;51.010;10.366;2023-04-24T08:37:00;1.42;;;1.33;;
14789;SDS011;7486;51.010;10.366;2023-04-24T08:39:46;1.35;;;1.25;;
14789;SDS011;7486;51.010;10.366;2023-04-24T08:42:33;1.23;;;1.10;;
14789;SDS011;7486;51.010;10.366;2023-04-24T08:45:20;1.42;;;1.33;;
14789;SDS011;7486;51.010;10.366;2023-04-24T08:48:06;1.98;;;1.52;;
14789;SDS011;7486;51.010;10.366;2023-04-24T08:51:08;1.38;;;1.25;;
14789;SDS011;7486;51.010;10.366;2023-04-24T08:53:54;1.75;;;1.60;;
14789;SDS011;7486;51.010;10.366;2023-04-24T08:56:39;1.30;;;1.20;;
14789;SDS011;7486;51.010;10.366;2023-04-24T08:59:29;1.42;;;1.33;;
14789;SDS011;7486;51.010;10.366;2023-04-24T09:02:15;2.42;;;1.60;;
14789;SDS011;7486;51.010;10.366;2023-04-24T09:05:02;2.13;;;1.33;;
14789;SDS011;7486;51.010;10.366;2023-04-24T09:07:49;1.77;;;1.30;;
14789;SDS011;7486;51.010;10.366;2023-04-24T09:10:39;1.55;;;1.45;;
14789;SDS011;7486;51.010;10.366;2023-04-24T09:13:25;1.70;;;1.60;;
14789;SDS011;7486;51.010;10.366;2023-04-24T09:16:11;2.20;;;1.50;;
14789;SDS011;7486;51.010;10.366;2023-04-24T09:18:58;1.88;;;1.70;;
14789;SDS011;7486;51.010;10.366;2023-04-24T09:21:45;2.05;;;1.85;;
14789;SDS011;7486;51.010;10.366;2023-04-24T09:24:31;2.25;;;1.92;;
14789;SDS011;7486;51.010;10.366;2023-04-24T09:27:16;1.83;;;1.63;;
14789;SDS011;7486;51.010;10.366;2023-04-24T09:30:02;1.95;;;1.83;;
14789;SDS011;7486;51.010;10.366;2023-04-24T09:32:48;1.98;;;1.80;;
14789;SDS011;7486;51.010;10.366;2023-04-24T09:35:34;2.30;;;1.90;;
14789;SDS011;7486;51.010;10.366;2023-04-24T09:38:20;1.90;;;1.80;;
14789;SDS011;7486;51.010;10.366;2023-04-24T09:41:16;3.03;;;2.10;;
14789;SDS011;7486;51.010;10.366;2023-04-24T09:44:14;2.00;;;1.80;;
14789;SDS011;7486;51.010;10.366;2023-04-24T09:47:00;1.83;;;1.73;;
14789;SDS011;7486;51.010;10.366;2023-04-24T09:49:46;2.67;;;1.70;;
14789;SDS011;7486;51.010;10.366;2023-04-24T09:52:31;1.73;;;1.63;;
14789;SDS011;7486;51.010;10.366;2023-04-24T09:55:18;1.90;;;1.67;;
14789;SDS011;7486;51.010;10.366;2023-04-24T09:58:05;2.13;;;1.80;;
14789;SDS011;7486;51.010;10.366;2023-04-24T10:00:53;2.88;;;1.60;;
14789;SDS011;7486;51.010;10.366;2023-04-24T10:03:40;3.08;;;1.90;;
14789;SDS011;7486;51.010;10.366;2023-04-24T10:06:33;1.98;;;1.75;;
14789;SDS011;7486;51.010;10.366;2023-04-24T10:09:23;1.88;;;1.67;;
14789;SDS011;7486;51.010;10.366;2023-04-24T10:12:10;1.98;;;1.80;;
14789;SDS011;7486;51.010;10.366;2023-04-24T10:14:56;2.20;;;2.00;;
14789;SDS011;7486;51.010;10.366;2023-04-24T10:17:43;1.80;;;1.70;;
14789;SDS011;7486;51.010;10.366;2023-04-24T10:20:30;2.38;;;1.95;;
14789;SDS011;7486;51.010;10.366;2023-04-24T10:23:16;2.30;;;2.10;;
14789;SDS011;7486;51.010;10.366;2023-04-24T10:26:01;2.45;;;2.25;;
14789;SDS011;7486;51.010;10.366;2023-04-24T10:28:49;2.50;;;2.00;;
14789;SDS011;7486;51.010;10.366;2023-04-24T10:31:36;2.15;;;1.90;;
14789;SDS011;7486;51.010;10.366;2023-04-24T10:34:21;2.10;;;1.90;;
14789;SDS011;7486;51.010;10.366;2023-04-24T10:37:08;2.10;;;1.90;;
14789;SDS011;7486;51.010;10.366;2023-04-24T10:39:54;2.10;;;1.90;;
14789;SDS011;7486;51.010;10.366;2023-04-24T10:42:40;2.05;;;1.85;;
14789;SDS011;7486;51.010;10.366;2023-04-24T10:45:26;3.17;;;1.83;;
14789;SDS011;7486;51.010;10.366;2023-04-24T10:48:11;2.08;;;1.83;;
14789;SDS011;7486;51.010;10.366;2023-04-24T10:51:00;2.20;;;2.00;;
14789;SDS011;7486;51.010;10.366;2023-04-24T10:53:46;4.13;;;1.83;;
14789;SDS011;7486;51.010;10.366;2023-04-24T10:56:32;1.80;;;1.40;;
14789;SDS011;7486;51.010;10.366;2023-04-24T10:59:27;1.73;;;1.63;;
14789;SDS011;7486;51.010;10.366;2023-04-24T11:02:20;1.75;;;1.58;;
14789;SDS011;7486;51.010;10.366;2023-04-24T11:05:21;2.30;;;1.50;;
14789;SDS011;7486;51.010;10.366;2023-04-24T11:08:11;1.50;;;1.40;;
14789;SDS011;7486;51.010;10.366;2023-04-24T11:11:13;1.60;;;1.50;;
14789;SDS011;7486;51.010;10.366;2023-04-24T11:14:01;2.35;;;1.60;;
14789;SDS011;7486;51.010;10.366;2023-04-24T11:16:51;1.60;;;1.50;;
14789;SDS011;7486;51.010;10.366;2023-04-24T11:19:38;1.70;;;1.60;;
14789;SDS011;7486;51.010;10.366;2023-04-24T11:22:24;1.50;;;1.40;;
14789;SDS011;7486;51.010;10.366;2023-04-24T11:25:10;1.50;;;1.40;;
14789;SDS011;7486;51.010;10.366;2023-04-24T11:28:03;3.58;;;1.58;;
14789;SDS011;7486;51.010;10.366;2023-04-24T11:30:49;1.75;;;1.30;;
14789;SDS011;7486;51.010;10.366;2023-04-24T11:33:34;1.30;;;1.20;;
14789;SDS011;7486;51.010;10.366;2023-04-24T11:36:20;1.40;;;1.30;;
14789;SDS011;7486;51.010;10.366;2023-04-24T11:39:06;1.70;;;1.30;;
14789;SDS011;7486;51.010;10.366;2023-04-24T11:41:51;1.40;;;1.30;;
14789;SDS011;7486;51.010;10.366;2023-04-24T11:44:37;2.25;;;1.10;;
14789;SDS011;7486;51.010;10.366;2023-04-24T11:47:29;1.30;;;1.20;;
14789;SDS011;7486;51.010;10.366;2023-04-24T11:50:15;1.52;;;1.42;;
14789;SDS011;7486;51.010;10.366;2023-04-24T11:53:06;3.30;;;1.60;;
14789;SDS011;7486;51.010;10.366;2023-04-24T11:55:52;2.38;;;1.67;;
14789;SDS011;7486;51.010;10.366;2023-04-24T11:58:37;1.55;;;1.45;;
14789;SDS011;7486;51.010;10.366;2023-04-24T12:01:23;2.03;;;1.33;;
14789;SDS011;7486;51.010;10.366;2023-04-24T12:04:09;1.60;;;1.50;;
14789;SDS011;7486;51.010;10.366;2023-04-24T12:09:57;1.48;;;1.38;;
14789;SDS011;7486;51.010;10.366;2023-04-24T12:12:43;1.40;;;1.30;;
14789;SDS011;7486;51.010;10.366;2023-04-24T12:15:32;1.42;;;1.33;;
14789;SDS011;7486;51.010;10.366;2023-04-24T12:18:17;0.98;;;0.98;;
14789;SDS011;7486;51.010;10.366;2023-04-24T12:21:16;1.00;;;1.00;;
14789;SDS011;7486;51.010;10.366;2023-04-24T12:24:07;0.70;;;0.70;;
14789;SDS011;7486;51.010;10.366;2023-04-24T12:26:52;0.63;;;0.63;;
14789;SDS011;7486;51.010;10.366;2023-04-24T12:29:50;2.47;;;0.65;;
14789;SDS011;7486;51.010;10.366;2023-04-24T12:32:40;0.60;;;0.60;;
14789;SDS011;7486;51.010;10.366;2023-04-24T12:35:27;0.68;;;0.68;;
14789;SDS011;7486;51.010;10.366;2023-04-24T12:38:15;0.73;;;0.70;;
14789;SDS011;7486;51.010;10.366;2023-04-24T12:41:04;0.70;;;0.70;;
14789;SDS011;7486;51.010;10.366;2023-04-24T12:43:51;3.60;;;0.70;;
14789;SDS011;7486;51.010;10.366;2023-04-24T12:46:37;0.73;;;0.73;;
14789;SDS011;7486;51.010;10.366;2023-04-24T12:49:23;0.73;;;0.43;;
14789;SDS011;7486;51.010;10.366;2023-04-24T12:52:08;0.43;;;0.40;;
14789;SDS011;7486;51.010;10.366;2023-04-24T12:54:54;0.50;;;0.50;;
14789;SDS011;7486;51.010;10.366;2023-04-24T12:57:40;0.40;;;0.40;;
14789;SDS011;7486;51.010;10.366;2023-04-24T13:00:26;0.50;;;0.50;;
14789;SDS011;7486;51.010;10.366;2023-04-24T13:03:12;0.50;;;0.50;;
14789;SDS011;7486;51.010;10.366;2023-04-24T13:05:58;0.70;;;0.40;;
14789;SDS011;7486;51.010;10.366;2023-04-24T13:08:44;0.40;;;0.40;;
14789;SDS011;7486;51.010;10.366;2023-04-24T13:11:29;0.30;;;0.30;;
14789;SDS011;7486;51.010;10.366;2023-04-24T13:14:15;0.47;;;0.47;;
14789;SDS011;7486;51.010;10.366;2023-04-24T13:17:00;0.55;;;0.55;;
14789;SDS011;7486;51.010;10.366;2023-04-24T13:19:49;0.40;;;0.40;;
14789;SDS011;7486;51.010;10.366;2023-04-24T13:22:35;0.30;;;0.30;;
14789;SDS011;7486;51.010;10.366;2023-04-24T13:25:20;0.47;;;0.20;;
14789;SDS011;7486;51.010;10.366;2023-04-24T13:28:06;0.20;;;0.20;;
14789;SDS011;7486;51.010;10.366;2023-04-24T13:30:51;0.20;;;0.20;;
14789;SDS011;7486;51.010;10.366;2023-04-24T13:33:36;1.05;;;0.30;;
14789;SDS011;7486;51.010;10.366;2023-04-24T13:36:22;0.20;;;0.20;;
14789;SDS011;7486;51.010;10.366;2023-04-24T13:39:07;0.20;;;0.20;;
14789;SDS011;7486;51.010;10.366;2023-04-24T13:41:53;0.20;;;0.20;;
14789;SDS011;7486;51.010;10.366;2023-04-24T13:44:38;0.38;;;0.30;;
14789;SDS011;7486;51.010;10.366;2023-04-24T13:47:24;0.10;;;0.10;;
14789;SDS011;7486;51.010;10.366;2023-04-24T13:50:10;0.30;;;0.30;;
14789;SDS011;7486;51.010;10.366;2023-04-24T13:52:55;0.20;;;0.20;;
14789;SDS011;7486;51.010;10.366;2023-04-24T13:55:41;0.65;;;0.47;;
14789;SDS011;7486;51.010;10.366;2023-04-24T13:58:26;0.30;;;0.30;;
14789;SDS011;7486;51.010;10.366;2023-04-24T14:01:12;0.50;;;0.50;;
14789;SDS011;7486;51.010;10.366;2023-04-24T14:03:58;0.30;;;0.30;;
14789;SDS011;7486;51.010;10.366;2023-04-24T14:06:44;0.40;;;0.40;;
14789;SDS011;7486;51.010;10.366;2023-04-24T14:09:29;0.40;;;0.40;;
14789;SDS011;7486;51.010;10.366;2023-04-24T14:12:16;0.47;;;0.47;;
14789;SDS011;7486;51.010;10.366;2023-04-24T14:15:01;0.40;;;0.40;;
14789;SDS011;7486;51.010;10.366;2023-04-24T14:17:47;0.60;;;0.60;;
14789;SDS011;7486;51.010;10.366;2023-04-24T14:20:33;0.80;;;0.50;;
14789;SDS011;7486;51.010;10.366;2023-04-24T14:23:18;0.60;;;0.60;;
14789;SDS011;7486;51.010;10.366;2023-04-24T14:26:03;0.98;;;0.60;;
14789;SDS011;7486;51.010;10.366;2023-04-24T14:28:48;1.17;;;0.88;;
14789;SDS011;7486;51.010;10.366;2023-04-24T14:31:35;0.70;;;0.70;;
14789;SDS011;7486;51.010;10.366;2023-04-24T14:34:20;0.75;;;0.75;;
14789;SDS011;7486;51.010;10.366;2023-04-24T14:37:07;0.75;;;0.70;;
14789;SDS011;7486;51.010;10.366;2023-04-24T14:39:52;0.80;;;0.80;;
14789;SDS011;7486;51.010;10.366;2023-04-24T14:42:58;0.80;;;0.80;;
14789;SDS011;7486;51.010;10.366;2023-04-24T14:45:43;1.20;;;1.05;;
14789;SDS011;7486;51.010;10.366;2023-04-24T14:48:29;1.05;;;0.95;;
14789;SDS011;7486;51.010;10.366;2023-04-24T14:51:14;2.47;;;1.00;;
14789;SDS011;7486;51.010;10.366;2023-04-24T14:54:00;0.93;;;0.90;;
14789;SDS011;7486;51.010;10.366;2023-04-24T14:56:46;1.25;;;0.95;;
14789;SDS011;7486;51.010;10.366;2023-04-24T14:59:31;1.40;;;1.00;;
14789;SDS011;7486;51.010;10.366;2023-04-24T15:02:18;1.00;;;1.00;;
14789;SDS011;7486;51.010;10.366;2023-04-24T15:05:06;1.17;;;1.08;;
14789;SDS011;7486;51.010;10.366;2023-04-24T15:07:53;1.30;;;0.98;;
14789;SDS011;7486;51.010;10.366;2023-04-24T15:10:38;1.85;;;1.08;;
14789;SDS011;7486;51.010;10.366;2023-04-24T15:13:23;2.38;;;1.27;;
14789;SDS011;7486;51.010;10.366;2023-04-24T15:16:09;0.90;;;0.90;;
14789;SDS011;7486;51.010;10.366;2023-04-24T15:18:55;0.98;;;0.98;;
14789;SDS011;7486;51.010;10.366;2023-04-24T15:21:40;1.77;;;1.20;;
14789;SDS011;7486;51.010;10.366;2023-04-24T15:24:25;1.13;;;1.00;;
14789;SDS011;7486;51.010;10.366;2023-04-24T15:27:10;1.30;;;1.20;;
14789;SDS011;7486;51.010;10.366;2023-04-24T15:29:56;1.65;;;1.30;;
14789;SDS011;7486;51.010;10.366;2023-04-24T15:32:41;1.20;;;1.20;;
14789;SDS011;7486;51.010;10.366;2023-04-24T15:35:27;1.50;;;1.40;;
14789;SDS011;7486;51.010;10.366;2023-04-24T15:38:13;1.30;;;1.20;;
14789;SDS011;7486;51.010;10.366;2023-04-24T15:40:58;2.33;;;1.13;;
14789;SDS011;7486;51.010;10.366;2023-04-24T15:43:44;1.60;;;1.30;;
14789;SDS011;7486;51.010;10.366;2023-04-24T15:46:30;2.13;;;1.40;;
14789;SDS011;7486;51.010;10.366;2023-04-24T15:49:15;1.20;;;1.10;;
14789;SDS011;7486;51.010;10.366;2023-04-24T15:52:01;1.58;;;1.40;;
14789;SDS011;7486;51.010;10.366;2023-04-24T15:54:47;2.13;;;1.40;;
14789;SDS011;7486;51.010;10.366;2023-04-24T15:57:32;3.80;;;1.40;;
14789;SDS011;7486;51.010;10.366;2023-04-24T16:00:18;1.40;;;1.17;;
14789;SDS011;7486;51.010;10.366;2023-04-24T16:03:04;1.60;;;1.13;;
14789;SDS011;7486;51.010;10.366;2023-04-24T16:05:54;1.92;;;1.35;;
14789;SDS011;7486;51.010;10.366;2023-04-24T16:08:39;1.63;;;1.42;;
14789;SDS011;7486;51.010;10.366;2023-04-24T16:11:24;1.65;;;1.50;;
14789;SDS011;7486;51.010;10.366;2023-04-24T16:14:10;1.65;;;1.48;;
14789;SDS011;7486;51.010;10.366;2023-04-24T16:16:56;2.58;;;1.60;;
14789;SDS011;7486;51.010;10.366;2023-04-24T16:19:42;1.60;;;1.50;;
14789;SDS011;7486;51.010;10.366;2023-04-24T16:22:28;3.03;;;2.00;;
14789;SDS011;7486;51.010;10.366;2023-04-24T16:25:14;1.50;;;1.40;;
14789;SDS011;7486;51.010;10.366;2023-04-24T16:27:59;2.55;;;1.60;;
14789;SDS011;7486;51.010;10.366;2023-04-24T16:30:44;2.22;;;1.45;;
14789;SDS011;7486;51.010;10.366;2023-04-24T16:33:30;2.03;;;1.70;;
14789;SDS011;7486;51.010;10.366;2023-04-24T16:36:15;1.95;;;1.60;;
14789;SDS011;7486;51.010;10.366;2023-04-24T16:39:01;2.10;;;1.70;;
14789;SDS011;7486;51.010;10.366;2023-04-24T16:41:48;2.33;;;1.70;;
14789;SDS011;7486;51.010;10.366;2023-04-24T16:44:33;2.35;;;1.85;;
14789;SDS011;7486;51.010;10.366;2023-04-24T16:47:19;3.53;;;2.00;;